Time;durP1;ratioP1;P1;durP2;ratioP2;P2;SDS_P1;SDS_P2;PMS_P1;PMS_P2;Temp;Humidity;BMP_temperature;BMP_pressure;BME280_temperature;BME280_humidity;BME280_pressure;Samples;Min_cycle;Max_cycle;Signal;HPM_P1;HPM_P2
2022/09/21 00:00:53;;;;;;;;;;;;;;;;;;10415162;28;19925;-57
2022/09/21 00:05:55;;;;;;;;;;;;;;;;;;10416145;28;19979;-57
2022/09/21 00:10:58;;;;;;;;;;;;;;;;;;10415395;28;19925;-58
2022/09/21 00:16:01;;;;;;;;;;;;;;;;;;10414771;28;19931;-57
2022/09/21 00:21:03;;;;;;;;;;;;;;;;;;10413246;28;19925;-58
2022/09/21 00:26:05;;;;;;;;;;;;;;;;;;10398152;28;19932;-58
2022/09/21 00:31:07;;;;;;;;;;;;;;;;;;10413927;28;19933;-58
2022/09/21 00:36:09;;;;;;;;;;;;;;;;;;10413939;28;19925;-58
2022/09/21 00:41:11;;;;;;;;;;;;;;;;;;10413682;28;19925;-58
2022/09/21 00:46:13;;;;;;;;;;;;;;;;;;10414648;28;19933;-58
2022/09/21 00:51:15;;;;;;;;;;;;;;;;;;10415121;28;19925;-58
2022/09/21 00:56:19;;;;;;;;;;;;;;;;;;10383415;28;19925;-58
2022/09/21 01:01:22;;;;;;;;;;;;;;;;;;10413114;22;19929;-59
2022/09/21 01:06:25;;;;;;;;;;;;;;;;;;10414878;28;19925;-59
2022/09/21 01:11:27;;;;;;;;;;;;;;;;;;10417391;28;19925;-59
2022/09/21 01:16:30;;;;;;;;;;;;;;;;;;10420827;28;20375;-59
2022/09/21 01:21:32;;;;;;;;;;;;;;;;;;10420773;28;19929;-59
2022/09/21 01:26:34;;;;;;;;;;;;;;;;;;10422217;28;19925;-59
2022/09/21 01:31:36;;;;;;;;;;;;;;;;;;10419296;28;19925;-59
2022/09/21 01:36:39;;;;;;;;;;;;;;;;;;10421630;28;20023;-59
2022/09/21 01:41:41;;;;;;;;;;;;;;;;;;10419565;28;19925;-59
2022/09/21 01:46:43;;;;;;;;;;;;;;;;;;10421452;28;19932;-59
2022/09/21 01:51:46;;;;;;;;;;;;;;;;;;10419610;28;19975;-59
2022/09/21 01:56:50;;;;;;;;;;;;;;;;;;10420989;28;19931;-59
2022/09/21 02:01:52;;;;;;;;;;;;;;;;;;10417346;28;19947;-59
2022/09/21 02:06:54;;;;;;;;;;;;;;;;;;10420038;28;20280;-59
2022/09/21 02:11:59;;;;;;;;;;;;;;;;;;10420313;28;19983;-59
2022/09/21 02:17:01;;;;;;;;;;;;;;;;;;10418675;28;20323;-58
2022/09/21 02:22:03;;;;;;;;;;;;;;;;;;10417898;28;19925;-59
2022/09/21 02:27:06;;;;;;;;;;;;;;;;;;10419878;28;19952;-58
2022/09/21 02:32:08;;;;;;;;;;;;;;;;;;10418099;28;20269;-59
2022/09/21 02:37:10;;;;;;;;;;;;;;;;;;10419446;28;19975;-59
2022/09/21 02:42:12;;;;;;;;;;;;;;;;;;10418315;28;19982;-59
2022/09/21 02:47:14;;;;;;;;;;;;;;;;;;10419076;28;19975;-59
2022/09/21 02:52:16;;;;;;;;;;;;;;;;;;10419262;28;19979;-58
2022/09/21 02:57:18;;;;;;;;;;;;;;;;;;10417095;28;19929;-59
2022/09/21 03:02:20;;;;;;;;;;;;;;;;;;10416383;28;19939;-59
2022/09/21 03:07:22;;;;;;;;;;;;;;;;;;10417817;28;20442;-59
2022/09/21 03:12:25;;;;;;;;;;;;;;;;;;10416510;28;19928;-59
2022/09/21 03:17:27;;;;;;;;;;;;;;;;;;10417022;28;19978;-59
2022/09/21 03:22:29;;;;;;;;;;;;;;;;;;10416192;28;20343;-59
2022/09/21 03:27:33;;;;;;;;;;;;;;;;;;10417581;28;19929;-59
2022/09/21 03:32:35;;;;;;;;;;;;;;;;;;10417012;28;19925;-59
2022/09/21 03:37:37;;;;;;;;;;;;;;;;;;10415357;28;20341;-59
2022/09/21 03:42:42;;;;;;;;;;;;;;;;;;10398292;28;19929;-59
2022/09/21 03:47:44;;;;;;;;;;;;;;;;;;10416903;28;19975;-58
2022/09/21 03:52:46;;;;;;;;;;;;;;;;;;10415010;28;19925;-59
2022/09/21 03:57:48;;;;;;;;;;;;;;;;;;10416335;28;19926;-59
2022/09/21 04:02:50;;;;;;;;;;;;;;;;;;10413732;28;19948;-58
2022/09/21 04:07:53;;;;;;;;;;;;;;;;;;10415567;28;19976;-59
2022/09/21 04:12:55;;;;;;;;;;;;;;;;;;10414640;28;19925;-59
2022/09/21 04:17:58;;;;;;;;;;;;;;;;;;10415743;28;19929;-58
2022/09/21 04:23:00;;;;;;;;;;;;;;;;;;10414285;28;20430;-58
2022/09/21 04:28:02;;;;;;;;;;;;;;;;;;10414746;28;19979;-59
2022/09/21 04:33:04;;;;;;;;;;;;;;;;;;10414671;28;19929;-59
2022/09/21 04:38:06;;;;;;;;;;;;;;;;;;10414164;28;19929;-58
2022/09/21 04:43:08;;;;;;;;;;;;;;;;;;10414478;28;20387;-58
2022/09/21 04:48:10;;;;;;;;;;;;;;;;;;10421805;28;19929;-59
2022/09/21 04:53:12;;;;;;;;;;;;;;;;;;10423513;28;19929;-59
2022/09/21 04:58:14;;;;;;;;;;;;;;;;;;10421785;28;19951;-59
2022/09/21 05:03:16;;;;;;;;;;;;;;;;;;10422207;28;19929;-59
2022/09/21 05:13:39;;;;;;;;;;;;;;;;;;10422755;28;19925;-59
2022/09/21 05:18:41;;;;;;;;;;;;;;;;;;10420041;28;20315;-59
2022/09/21 05:23:43;;;;;;;;;;;;;;;;;;10401983;28;19929;-58
2022/09/21 05:28:45;;;;;;;;;;;;;;;;;;10393141;28;19926;-58
2022/09/21 05:33:48;;;;;;;;;;;;;;;;;;10421994;28;19925;-58
2022/09/21 05:38:50;;;;;;;;;;;;;;;;;;10420709;28;19925;-58
2022/09/21 05:43:52;;;;;;;;;;;;;;;;;;10420666;28;19972;-58
2022/09/21 05:48:54;;;;;;;;;;;;;;;;;;10420443;28;19925;-58
2022/09/21 05:53:56;;;;;;;;;;;;;;;;;;10421247;28;19925;-58
2022/09/21 05:58:58;;;;;;;;;;;;;;;;;;10419646;28;19979;-58
2022/09/21 06:04:00;;;;;;;;;;;;;;;;;;10405689;28;19979;-62
2022/09/21 06:09:03;;;;;;;;;;;;;;;;;;10419900;28;20448;-63
2022/09/21 06:14:05;;;;;;;;;;;;;;;;;;10420335;28;19975;-63
2022/09/21 06:19:07;;;;;;;;;;;;;;;;;;10418496;28;19925;-63
2022/09/21 06:24:10;;;;;;;;;;;;;;;;;;10418580;28;19925;-63
2022/09/21 06:29:12;;;;;;;;;;;;;;;;;;10418548;28;19929;-63
2022/09/21 06:34:14;;;;;;;;;;;;;;;;;;10419658;28;19932;-63
2022/09/21 06:39:16;;;;;;;;;;;;;;;;;;10417657;28;20451;-63
2022/09/21 06:44:19;;;;;;;;;;;;;;;;;;10419301;28;20005;-63
2022/09/21 06:49:21;;;;;;;;;;;;;;;;;;10419055;28;19971;-63
2022/09/21 06:54:23;;;;;;;;;;;;;;;;;;10417889;28;19929;-63
2022/09/21 06:59:25;;;;;;;;;;;;;;;;;;10416305;28;19952;-64
2022/09/21 07:04:28;;;;;;;;;;;;;;;;;;10417656;28;19925;-63
2022/09/21 07:09:30;;;;;;;;;;;;;;;;;;10416914;28;19929;-64
2022/09/21 07:14:52;;;;;;;;;;;;;;;;;;10405085;28;20292;-63
2022/09/21 07:19:54;;;;;;;;;;;;;;;;;;10398257;28;19925;-63
2022/09/21 07:24:56;;;;;;;;;;;;;;;;;;10414006;28;19929;-63
2022/09/21 07:29:58;;;;;;;;;;;;;;;;;;10416951;28;20380;-64
2022/09/21 07:35:01;;;;;;;;;;;;;;;;;;10417309;28;19925;-64
2022/09/21 07:40:04;;;;;;;;;;;;;;;;;;10416053;28;19975;-65
2022/09/21 07:45:07;;;;;;;;;;;;;;;;;;10416302;28;20363;-64
2022/09/21 07:50:09;;;;;;;;;;;;;;;;;;10398249;28;19925;-64
2022/09/21 07:55:11;;;;;;;;;;;;;;;;;;10416055;28;19925;-65
2022/09/21 08:00:13;;;;;;;;;;;;;;;;;;10414903;28;19933;-64
2022/09/21 08:05:15;;;;;;;;;;;;;;;;;;10414669;28;20368;-65
2022/09/21 08:10:17;;;;;;;;;;;;;;;;;;10414238;28;19925;-65
2022/09/21 08:15:19;;;;;;;;;;;;;;;;;;10413598;28;19975;-65
2022/09/21 08:20:41;;;;;;;;;;;;;;;;;;10410749;28;20052;-65
2022/09/21 08:25:44;;;;;;;;;;;;;;;;;;10413731;28;19929;-65
2022/09/21 08:30:46;;;;;;;;;;;;;;;;;;10414315;28;20345;-65
2022/09/21 08:35:48;;;;;;;;;;;;;;;;;;10414598;28;19930;-65
2022/09/21 08:40:50;;;;;;;;;;;;;;;;;;10413763;28;20419;-65
2022/09/21 08:45:52;;;;;;;;;;;;;;;;;;10412570;28;19933;-66
2022/09/21 08:50:54;;;;;;;;;;;;;;;;;;10412858;28;20482;-66
2022/09/21 08:55:56;;;;;;;;;;;;;;;;;;10410512;28;20368;-66
2022/09/21 09:00:58;;;;;;;;;;;;;;;;;;10408486;28;20389;-65
2022/09/21 09:06:04;;;;;;;;;;;;;;;;;;10413780;28;19971;-65
2022/09/21 09:11:06;;;;;;;;;;;;;;;;;;10414263;28;19925;-65
2022/09/21 09:16:08;;;;;;;;;;;;;;;;;;10413007;28;19925;-65
2022/09/21 09:21:10;;;;;;;;;;;;;;;;;;10414042;28;19952;-65
2022/09/21 09:26:13;;;;;;;;;;;;;;;;;;10412988;28;20408;-66
2022/09/21 09:31:15;;;;;;;;;;;;;;;;;;10416370;28;20339;-66
2022/09/21 09:36:17;;;;;;;;;;;;;;;;;;10429250;28;19932;-67
2022/09/21 09:41:35;;;;;;;;;;;;;;;;;;10422428;28;19968;-67
2022/09/21 09:46:37;;;;;;;;;;;;;;;;;;10419541;28;19929;-67
2022/09/21 09:51:39;;;;;;;;;;;;;;;;;;10420673;28;19925;-66
2022/09/21 09:56:42;;;;;;;;;;;;;;;;;;10419451;28;19929;-66
2022/09/21 10:01:46;;;;;;;;;;;;;;;;;;10420577;28;19925;-66
2022/09/21 10:06:49;;;;;;;;;;;;;;;;;;10419277;28;20404;-66
2022/09/21 10:11:51;;;;;;;;;;;;;;;;;;10420510;28;19925;-67
2022/09/21 10:16:53;;;;;;;;;;;;;;;;;;10419296;28;19940;-67
2022/09/21 10:21:55;;;;;;;;;;;;;;;;;;10418651;28;19979;-67
2022/09/21 10:26:57;;;;;;;;;;;;;;;;;;10416414;28;19925;-67
2022/09/21 10:31:59;;;;;;;;;;;;;;;;;;10419206;28;19991;-67
2022/09/21 10:37:02;;;;;;;;;;;;;;;;;;10418535;28;19929;-67
2022/09/21 10:42:04;;;;;;;;;;;;;;;;;;10418397;28;19975;-68
2022/09/21 10:47:06;;;;;;;;;;;;;;;;;;10418234;28;19925;-68
2022/09/21 10:52:08;;;;;;;;;;;;;;;;;;10416535;28;19925;-67
2022/09/21 10:57:10;;;;;;;;;;;;;;;;;;10415953;28;19929;-67
2022/09/21 11:02:12;;;;;;;;;;;;;;;;;;10418274;28;19974;-67
2022/09/21 11:07:15;;;;;;;;;;;;;;;;;;10399038;28;19925;-66
2022/09/21 11:12:17;;;;;;;;;;;;;;;;;;10418033;28;19975;-67
2022/09/21 11:17:19;;;;;;;;;;;;;;;;;;10416215;28;20273;-60
2022/09/21 11:22:21;;;;;;;;;;;;;;;;;;10394848;28;19925;-60
2022/09/21 11:27:23;;;;;;;;;;;;;;;;;;10414111;28;19929;-62
2022/09/21 11:32:25;;;;;;;;;;;;;;;;;;10425905;28;20431;-61
2022/09/21 11:37:27;;;;;;;;;;;;;;;;;;10417087;28;19975;-61
2022/09/21 11:42:32;;;;;;;;;;;;;;;;;;10417003;28;19979;-61
2022/09/21 11:47:34;;;;;;;;;;;;;;;;;;10414575;28;19925;-61
2022/09/21 11:52:37;;;;;;;;;;;;;;;;;;10412381;28;19979;-61
2022/09/21 11:57:39;;;;;;;;;;;;;;;;;;10415717;28;19999;-61
2022/09/21 12:02:42;;;;;;;;;;;;;;;;;;10415545;28;19925;-60
2022/09/21 12:07:44;;;;;;;;;;;;;;;;;;10416104;28;19925;-61
2022/09/21 12:12:46;;;;;;;;;;;;;;;;;;10416020;28;19926;-61
2022/09/21 12:17:48;;;;;;;;;;;;;;;;;;10415272;28;20380;-61
2022/09/21 12:22:50;;;;;;;;;;;;;;;;;;10415779;28;19926;-61
2022/09/21 12:27:52;;;;;;;;;;;;;;;;;;10415001;28;19925;-60
2022/09/21 12:32:54;;;;;;;;;;;;;;;;;;10414844;28;20422;-60
2022/09/21 12:37:57;;;;;;;;;;;;;;;;;;10415893;28;19983;-60
2022/09/21 12:43:00;;;;;;;;;;;;;;;;;;10414714;28;20392;-60
2022/09/21 12:48:02;;;;;;;;;;;;;;;;;;10415314;28;19925;-61
2022/09/21 12:53:04;;;;;;;;;;;;;;;;;;10415217;28;19925;-61
2022/09/21 12:58:06;;;;;;;;;;;;;;;;;;10414354;28;19925;-61
2022/09/21 13:03:18;;;;;;;;;;;;;;;;;;10414574;28;19933;-61
2022/09/21 13:08:20;;;;;;;;;;;;;;;;;;10419714;28;20339;-61
2022/09/21 13:13:23;;;;;;;;;;;;;;;;;;10422204;28;20265;-61
2022/09/21 13:18:25;;;;;;;;;;;;;;;;;;10461123;22;19929;-67
2022/09/21 13:23:28;;;;;;;;;;;;;;;;;;10463014;28;19931;-67
2022/09/21 13:28:31;;;;;;;;;;;;;;;;;;10461991;28;19925;-67
2022/09/21 13:33:33;;;;;;;;;;;;;;;;;;10462434;28;19932;-67
2022/09/21 13:38:36;;;;;;;;;;;;;;;;;;10461998;28;19924;-67
2022/09/21 13:43:39;;;;;;;;;;;;;;;;;;10463159;28;19925;-67
2022/09/21 13:48:41;;;;;;;;;;;;;;;;;;10461289;28;19951;-67
2022/09/21 13:53:43;;;;;;;;;;;;;;;;;;10460837;28;20349;-70
2022/09/21 13:58:46;;;;;;;;;;;;;;;;;;10458439;28;19929;-61
2022/09/21 14:03:48;;;;;;;;;;;;;;;;;;10460807;28;19972;-61
2022/09/21 14:08:50;;;;;;;;;;;;;;;;;;10461537;28;19929;-61
2022/09/21 14:13:52;;;;;;;;;;;;;;;;;;10461623;28;20338;-61
2022/09/21 14:18:54;;;;;;;;;;;;;;;;;;10460571;28;19971;-61
2022/09/21 14:23:56;;;;;;;;;;;;;;;;;;10458832;28;20322;-61
2022/09/21 14:28:58;;;;;;;;;;;;;;;;;;10457703;28;19925;-61
2022/09/21 14:34:01;;;;;;;;;;;;;;;;;;10460670;28;19970;-61
2022/09/21 14:39:03;;;;;;;;;;;;;;;;;;10461285;28;19928;-61
2022/09/21 14:44:05;;;;;;;;;;;;;;;;;;10461153;28;19978;-61
2022/09/21 14:49:07;;;;;;;;;;;;;;;;;;10461088;28;19951;-61
2022/09/21 14:54:10;;;;;;;;;;;;;;;;;;10460176;28;19924;-61
2022/09/21 14:59:14;;;;;;;;;;;;;;;;;;10460518;28;19928;-61
2022/09/21 15:04:16;;;;;;;;;;;;;;;;;;10459858;28;20376;-61
2022/09/21 15:14:39;;;;;;;;;;;;;;;;;;10459998;28;19925;-61
2022/09/21 15:19:42;;;;;;;;;;;;;;;;;;10458941;28;19924;-61
2022/09/21 15:24:44;;;;;;;;;;;;;;;;;;10458393;28;19970;-61
2022/09/21 15:29:47;;;;;;;;;;;;;;;;;;10457045;28;20330;-61
2022/09/21 15:34:49;;;;;;;;;;;;;;;;;;10458557;28;19951;-61
2022/09/21 15:39:51;;;;;;;;;;;;;;;;;;10458878;28;19925;-61
2022/09/21 15:44:54;;;;;;;;;;;;;;;;;;10458725;28;19936;-61
2022/09/21 15:49:56;;;;;;;;;;;;;;;;;;10457928;28;20387;-61
2022/09/21 15:54:58;;;;;;;;;;;;;;;;;;10458408;28;19978;-61
2022/09/21 16:00:00;;;;;;;;;;;;;;;;;;10458165;28;19960;-61
2022/09/21 16:05:03;;;;;;;;;;;;;;;;;;10458092;28;19924;-60
2022/09/21 16:10:05;;;;;;;;;;;;;;;;;;10457262;28;20323;-61
2022/09/21 16:15:07;;;;;;;;;;;;;;;;;;10456865;28;19925;-61
2022/09/21 16:20:10;;;;;;;;;;;;;;;;;;10456975;28;19925;-61
2022/09/21 16:25:12;;;;;;;;;;;;;;;;;;10456885;28;20320;-61
2022/09/21 16:30:14;;;;;;;;;;;;;;;;;;10456176;28;19983;-62
2022/09/21 16:35:16;;;;;;;;;;;;;;;;;;10456922;28;19928;-62
2022/09/21 16:40:18;;;;;;;;;;;;;;;;;;10457796;28;19979;-62
2022/09/21 16:45:20;;;;;;;;;;;;;;;;;;10465144;28;20403;-62
2022/09/21 16:50:23;;;;;;;;;;;;;;;;;;10465586;28;19979;-62
2022/09/21 16:55:26;;;;;;;;;;;;;;;;;;10464733;28;19990;-62
2022/09/21 17:00:30;;;;;;;;;;;;;;;;;;10464529;28;19925;-62
2022/09/21 17:05:32;;;;;;;;;;;;;;;;;;10464439;28;20328;-62
2022/09/21 17:10:34;;;;;;;;;;;;;;;;;;10464837;28;19978;-62
2022/09/21 17:15:36;;;;;;;;;;;;;;;;;;10464227;28;20437;-62
2022/09/21 17:20:38;;;;;;;;;;;;;;;;;;10463756;28;20359;-62
2022/09/21 17:25:40;;;;;;;;;;;;;;;;;;10464254;28;19925;-62
2022/09/21 17:30:45;;;;;;;;;;;;;;;;;;10463605;28;19925;-62
2022/09/21 17:35:49;;;;;;;;;;;;;;;;;;10463203;28;19974;-62
2022/09/21 17:40:51;;;;;;;;;;;;;;;;;;10462956;28;20334;-62
2022/09/21 17:45:53;;;;;;;;;;;;;;;;;;10462840;28;19925;-62
2022/09/21 17:50:55;;;;;;;;;;;;;;;;;;10462777;28;19924;-61
2022/09/21 17:55:57;;;;;;;;;;;;;;;;;;10462426;28;20399;-61
2022/09/21 18:01:00;;;;;;;;;;;;;;;;;;10462774;28;19932;-62
2022/09/21 18:06:02;;;;;;;;;;;;;;;;;;10462850;28;19925;-60
2022/09/21 18:11:04;;;;;;;;;;;;;;;;;;10461849;28;19928;-60
2022/09/21 18:16:08;;;;;;;;;;;;;;;;;;10461935;28;19971;-59
2022/09/21 18:21:11;;;;;;;;;;;;;;;;;;10461354;28;20074;-59
2022/09/21 18:26:15;;;;;;;;;;;;;;;;;;10460085;28;19925;-59
2022/09/21 18:31:17;;;;;;;;;;;;;;;;;;10461679;28;20046;-59
2022/09/21 18:36:20;;;;;;;;;;;;;;;;;;10460884;28;20326;-59
2022/09/21 18:41:22;;;;;;;;;;;;;;;;;;10461228;28;19925;-59
2022/09/21 18:46:24;;;;;;;;;;;;;;;;;;10460489;28;19932;-59
2022/09/21 18:51:27;;;;;;;;;;;;;;;;;;10460950;28;19932;-59
2022/09/21 18:56:29;;;;;;;;;;;;;;;;;;10460789;28;19933;-59
2022/09/21 19:01:33;;;;;;;;;;;;;;;;;;10459820;28;20216;-59
2022/09/21 19:06:36;;;;;;;;;;;;;;;;;;10458869;28;20447;-59
2022/09/21 19:11:38;;;;;;;;;;;;;;;;;;10460060;28;19976;-59
2022/09/21 19:16:40;;;;;;;;;;;;;;;;;;10459005;28;20371;-59
2022/09/21 19:21:44;;;;;;;;;;;;;;;;;;10458983;28;19925;-59
2022/09/21 19:26:46;;;;;;;;;;;;;;;;;;10458895;28;20319;-59
2022/09/21 19:31:48;;;;;;;;;;;;;;;;;;10459302;28;19925;-59
2022/09/21 19:36:50;;;;;;;;;;;;;;;;;;10458829;28;19925;-59
2022/09/21 19:41:53;;;;;;;;;;;;;;;;;;10458857;28;19971;-59
2022/09/21 19:46:55;;;;;;;;;;;;;;;;;;10459315;28;19975;-59
2022/09/21 19:51:57;;;;;;;;;;;;;;;;;;10458534;28;19951;-59
2022/09/21 20:02:24;;;;;;;;;;;;;;;;;;10458095;28;19925;-59
2022/09/21 20:07:26;;;;;;;;;;;;;;;;;;10457452;28;20478;-59
2022/09/21 20:12:28;;;;;;;;;;;;;;;;;;10457928;28;19924;-59
2022/09/21 20:17:31;;;;;;;;;;;;;;;;;;10456835;28;19924;-59
2022/09/21 20:22:33;;;;;;;;;;;;;;;;;;10456930;28;20430;-59
2022/09/21 20:27:35;;;;;;;;;;;;;;;;;;10457471;28;19929;-59
2022/09/21 20:32:37;;;;;;;;;;;;;;;;;;10457378;28;19971;-59
2022/09/21 20:37:39;;;;;;;;;;;;;;;;;;10457237;28;19925;-59
2022/09/21 20:42:41;;;;;;;;;;;;;;;;;;10457124;28;19925;-59
2022/09/21 20:47:43;;;;;;;;;;;;;;;;;;10456503;28;20371;-59
2022/09/21 20:52:45;;;;;;;;;;;;;;;;;;10457017;28;19990;-59
2022/09/21 20:57:47;;;;;;;;;;;;;;;;;;10456959;28;19925;-59
2022/09/21 21:02:50;;;;;;;;;;;;;;;;;;10456745;28;19929;-59
2022/09/21 21:07:52;;;;;;;;;;;;;;;;;;10456751;28;19974;-59
2022/09/21 21:12:54;;;;;;;;;;;;;;;;;;10456605;28;19925;-59
2022/09/21 21:17:56;;;;;;;;;;;;;;;;;;10454243;28;20249;-59
2022/09/21 21:22:58;;;;;;;;;;;;;;;;;;10451465;28;19925;-59
2022/09/21 21:28:03;;;;;;;;;;;;;;;;;;10456684;28;20451;-58
2022/09/21 21:33:05;;;;;;;;;;;;;;;;;;10463978;28;19936;-59
2022/09/21 21:38:07;;;;;;;;;;;;;;;;;;10463205;28;19974;-59
2022/09/21 21:43:09;;;;;;;;;;;;;;;;;;10462455;28;19925;-59
2022/09/21 21:48:11;;;;;;;;;;;;;;;;;;10461447;28;19971;-59
2022/09/21 21:53:13;;;;;;;;;;;;;;;;;;10462268;28;19925;-59
2022/09/21 21:58:15;;;;;;;;;;;;;;;;;;10461241;28;19932;-59
2022/09/21 22:03:17;;;;;;;;;;;;;;;;;;10462136;28;20296;-59
2022/09/21 22:08:19;;;;;;;;;;;;;;;;;;10460672;28;19924;-59
2022/09/21 22:13:22;;;;;;;;;;;;;;;;;;10461589;28;19970;-59
2022/09/21 22:18:24;;;;;;;;;;;;;;;;;;10461832;28;19928;-59
2022/09/21 22:23:26;;;;;;;;;;;;;;;;;;10461007;28;19951;-59
2022/09/21 22:28:28;;;;;;;;;;;;;;;;;;10460386;28;19928;-59
2022/09/21 22:33:31;;;;;;;;;;;;;;;;;;10460731;28;19971;-59
2022/09/21 22:38:34;;;;;;;;;;;;;;;;;;10460938;28;20287;-59
2022/09/21 22:43:40;;;;;;;;;;;;;;;;;;10460352;28;19968;-58
2022/09/21 22:48:42;;;;;;;;;;;;;;;;;;10459422;28;20327;-58
2022/09/21 22:53:44;;;;;;;;;;;;;;;;;;10460063;28;19971;-59
2022/09/21 22:58:46;;;;;;;;;;;;;;;;;;10460622;28;19928;-59
2022/09/21 23:03:48;;;;;;;;;;;;;;;;;;10460008;28;19924;-58
2022/09/21 23:08:50;;;;;;;;;;;;;;;;;;10457748;28;19925;-59
2022/09/21 23:13:52;;;;;;;;;;;;;;;;;;10460070;28;19925;-59
2022/09/21 23:18:54;;;;;;;;;;;;;;;;;;10459189;28;19924;-59
2022/09/21 23:23:58;;;;;;;;;;;;;;;;;;10453605;28;19925;-59
2022/09/21 23:29:00;;;;;;;;;;;;;;;;;;10455771;28;19983;-59
2022/09/21 23:34:02;;;;;;;;;;;;;;;;;;10458685;28;20338;-59
2022/09/21 23:39:05;;;;;;;;;;;;;;;;;;10457383;28;20376;-59
2022/09/21 23:44:07;;;;;;;;;;;;;;;;;;10458142;28;19929;-59
2022/09/21 23:49:09;;;;;;;;;;;;;;;;;;10457088;28;19975;-58
2022/09/21 23:54:13;;;;;;;;;;;;;;;;;;10457526;28;19924;-58
2022/09/21 23:59:15;;;;;;;;;;;;;;;;;;10458310;28;19975;-58
